createdAt,value
2023-05-12T00:01:44.688Z,72.17
2023-05-12T00:04:12.698Z,72.04
2023-05-12T00:06:40.721Z,71.89
2023-05-12T00:09:09.713Z,72.08
2023-05-12T00:11:38.015Z,71.88
2023-05-12T00:14:06.005Z,72.17
2023-05-12T00:16:34.022Z,71.96
2023-05-12T00:19:03.429Z,72.15
2023-05-12T00:21:31.394Z,72.31
2023-05-12T00:23:59.285Z,72.43
2023-05-12T00:26:27.634Z,72.39
2023-05-12T00:28:55.599Z,72.48
2023-05-12T00:31:23.542Z,72.24
2023-05-12T00:33:51.558Z,72.60
2023-05-12T00:36:20.853Z,72.42
2023-05-12T00:38:48.878Z,72.41
2023-05-12T00:41:16.832Z,72.68
2023-05-12T00:43:44.816Z,72.57
2023-05-12T00:46:12.735Z,73.18
2023-05-12T00:48:40.685Z,72.35
2023-05-12T00:51:08.834Z,72.66
2023-05-12T00:53:48.308Z,72.68
2023-05-12T00:56:18.628Z,72.59
2023-05-12T00:58:46.933Z,72.62
2023-05-12T01:01:14.993Z,72.36
2023-05-12T01:03:43.080Z,72.77
2023-05-12T01:06:14.610Z,72.55
2023-05-12T01:08:43.885Z,72.51
2023-05-12T01:11:11.993Z,72.46
2023-05-12T01:13:41.294Z,71.97
2023-05-12T01:16:10.787Z,72.40
2023-05-12T01:18:39.475Z,72.69
2023-05-12T01:21:07.820Z,72.35
2023-05-12T01:23:39.284Z,72.44
2023-05-12T01:26:09.470Z,72.40
2023-05-12T01:28:37.800Z,72.52
2023-05-12T01:31:06.722Z,72.69
2023-05-12T01:33:35.196Z,72.67
2023-05-12T01:36:03.112Z,72.43
2023-05-12T01:38:31.009Z,72.53
2023-05-12T01:40:58.992Z,72.47
2023-05-12T01:43:28.299Z,73.34
2023-05-12T01:45:56.217Z,72.48
2023-05-12T01:48:24.091Z,72.76
2023-05-12T01:50:52.002Z,72.72
2023-05-12T01:53:19.925Z,72.65
2023-05-12T01:55:47.899Z,72.78
2023-05-12T01:58:15.980Z,72.79
2023-05-12T02:00:45.248Z,72.76
2023-05-12T02:03:13.220Z,72.63
2023-05-12T02:05:41.404Z,72.78
2023-05-12T02:08:09.389Z,72.75
2023-05-12T02:10:37.369Z,72.51
2023-05-12T02:13:05.349Z,74.23
2023-05-12T02:15:33.348Z,73.04
2023-05-12T02:18:03.820Z,72.81
2023-05-12T02:20:31.794Z,72.74
2023-05-12T02:22:59.693Z,72.81
2023-05-12T02:25:27.626Z,72.80
2023-05-12T02:27:55.531Z,72.76
2023-05-12T02:30:23.768Z,72.91
2023-05-12T02:32:51.715Z,72.83
2023-05-12T02:35:21.477Z,72.89
2023-05-12T02:37:49.451Z,72.64
2023-05-12T02:40:17.791Z,72.67
2023-05-12T02:42:45.816Z,73.03
2023-05-12T02:45:14.205Z,72.69
2023-05-12T02:47:42.298Z,72.81
2023-05-12T02:50:10.819Z,72.88
2023-05-12T02:52:40.139Z,72.97
2023-05-12T02:55:08.569Z,72.77
2023-05-12T02:57:37.700Z,72.82
2023-05-12T03:00:06.817Z,72.87
2023-05-12T03:02:36.251Z,72.94
2023-05-12T03:05:04.400Z,73.01
2023-05-12T03:07:32.580Z,72.84
2023-05-12T03:10:02.438Z,72.75
2023-05-12T03:12:30.433Z,72.87
2023-05-12T03:14:58.634Z,72.88
2023-05-12T03:17:26.870Z,73.04
2023-05-12T03:19:54.810Z,73.00
2023-05-12T03:22:22.760Z,73.02
2023-05-12T03:24:50.710Z,73.05
2023-05-12T03:27:20.008Z,73.11
2023-05-12T03:29:47.921Z,72.91
2023-05-12T03:32:15.930Z,72.86
2023-05-12T03:34:43.842Z,72.90
2023-05-12T03:37:11.786Z,72.65
2023-05-12T03:39:39.680Z,73.08
2023-05-12T03:42:07.919Z,73.08
2023-05-12T03:44:37.226Z,72.81
2023-05-12T03:47:05.478Z,72.87
2023-05-12T03:49:33.476Z,72.65
2023-05-12T03:52:01.614Z,72.82
2023-05-12T03:54:29.538Z,72.89
2023-05-12T03:56:57.462Z,72.70
2023-05-12T03:59:25.794Z,72.89
2023-05-12T04:01:55.087Z,72.88
2023-05-12T04:04:23.003Z,73.07
2023-05-12T04:06:50.999Z,72.52
2023-05-12T04:09:18.920Z,72.59
2023-05-12T04:11:46.783Z,72.96
2023-05-12T04:14:14.788Z,72.79
2023-05-12T04:16:42.724Z,72.80
2023-05-12T04:19:12.125Z,72.77
2023-05-12T04:21:40.024Z,72.75
2023-05-12T04:24:07.989Z,72.75
2023-05-12T04:26:35.895Z,72.50
2023-05-12T04:29:03.777Z,72.43
2023-05-12T04:31:31.714Z,72.56
2023-05-12T04:33:59.663Z,72.62
2023-05-12T04:36:28.928Z,72.44
2023-05-12T04:38:56.909Z,72.22
2023-05-12T04:41:24.803Z,72.24
2023-05-12T04:46:23.630Z,72.33
2023-05-12T04:48:51.548Z,72.43
2023-05-12T04:51:19.456Z,72.13
2023-05-12T04:53:48.756Z,72.19
2023-05-12T04:56:16.896Z,72.25
2023-05-12T04:58:44.868Z,71.95
2023-05-12T05:01:13.681Z,72.03
2023-05-12T05:03:41.763Z,72.06
2023-05-12T05:06:09.772Z,71.94
2023-05-12T05:08:37.651Z,71.56
2023-05-12T05:11:07.033Z,71.76
2023-05-12T05:13:34.917Z,71.73
2023-05-12T05:16:02.992Z,71.63
2023-05-12T05:18:30.949Z,71.67
2023-05-12T05:20:59.357Z,72.01
2023-05-12T05:23:27.544Z,71.53
2023-05-12T05:25:55.482Z,71.38
2023-05-12T05:28:24.918Z,71.21
2023-05-12T05:30:52.855Z,71.08
2023-05-12T05:33:21.364Z,70.90
2023-05-12T05:35:49.290Z,71.21
2023-05-12T05:38:17.243Z,70.83
2023-05-12T05:40:52.159Z,71.45
2023-05-12T05:43:21.866Z,70.45
2023-05-12T05:45:51.487Z,75.38
2023-05-12T05:48:19.537Z,73.83
2023-05-12T05:50:47.479Z,74.69
2023-05-12T05:53:15.540Z,71.66
2023-05-12T05:55:43.556Z,70.93
2023-05-12T05:58:11.492Z,70.58
2023-05-12T06:00:39.458Z,70.15
2023-05-12T06:03:08.805Z,70.04
2023-05-12T06:05:36.864Z,69.70
2023-05-12T06:08:05.306Z,73.02
2023-05-12T06:10:33.381Z,69.69
2023-05-12T06:13:01.331Z,69.88
2023-05-12T06:15:29.245Z,69.46
2023-05-12T06:17:57.203Z,70.13
2023-05-12T06:20:26.511Z,69.08
2023-05-12T06:22:54.436Z,70.06
2023-05-12T06:25:22.644Z,69.04
2023-05-12T06:27:52.037Z,72.25
2023-05-12T06:30:20.154Z,69.67
2023-05-12T06:32:48.175Z,69.42
2023-05-12T06:35:16.800Z,71.65
2023-05-12T06:37:49.737Z,68.94
2023-05-12T06:40:18.066Z,70.01
2023-05-12T06:42:46.042Z,69.20
2023-05-12T06:45:14.019Z,68.32
2023-05-12T06:47:42.107Z,68.13
2023-05-12T06:50:10.441Z,70.02
2023-05-12T06:52:38.620Z,68.21
2023-05-12T06:55:08.673Z,68.94
2023-05-12T06:57:36.730Z,68.07
2023-05-12T07:00:05.036Z,69.43
2023-05-12T07:02:32.995Z,67.83
2023-05-12T07:05:00.996Z,68.95
2023-05-12T07:07:28.918Z,67.46
2023-05-12T07:09:57.170Z,67.09
2023-05-12T07:12:26.544Z,67.33
2023-05-12T07:14:54.473Z,66.88
2023-05-12T07:17:22.799Z,67.18
2023-05-12T07:19:50.720Z,66.80
2023-05-12T07:22:21.374Z,66.78
2023-05-12T07:24:49.295Z,66.48
2023-05-12T07:27:17.758Z,66.79
2023-05-12T07:29:47.050Z,66.20
2023-05-12T07:32:14.956Z,66.42
2023-05-12T07:34:42.885Z,66.72
2023-05-12T07:37:10.777Z,65.82
2023-05-12T07:39:38.661Z,66.61
2023-05-12T07:42:07.160Z,65.56
2023-05-12T07:44:35.055Z,65.66
2023-05-12T07:47:05.231Z,65.10
2023-05-12T07:49:33.190Z,65.48
2023-05-12T07:52:01.355Z,65.40
2023-05-12T07:54:29.281Z,65.37
2023-05-12T07:56:57.165Z,65.04
2023-05-12T07:59:25.093Z,64.76
2023-05-12T08:01:54.070Z,64.69
2023-05-12T08:04:23.543Z,64.27
2023-05-12T08:06:51.520Z,63.84
2023-05-12T08:09:19.517Z,63.60
2023-05-12T08:11:49.409Z,63.37
2023-05-12T08:14:19.313Z,62.88
2023-05-12T08:16:47.919Z,62.60
2023-05-12T08:19:15.980Z,62.65
2023-05-12T08:21:45.718Z,61.45
2023-05-12T08:24:13.618Z,61.41
2023-05-12T08:26:41.517Z,59.97
2023-05-12T08:29:09.733Z,60.13
2023-05-12T08:31:39.494Z,60.09
2023-05-12T08:34:10.752Z,59.73
2023-05-12T08:36:39.281Z,59.34
2023-05-12T08:39:10.202Z,59.69
2023-05-12T08:41:45.577Z,59.40
2023-05-12T08:44:13.924Z,59.06
2023-05-12T08:46:42.138Z,58.87
2023-05-12T08:49:15.788Z,58.67
2023-05-12T08:51:54.498Z,59.16
2023-05-12T08:54:28.451Z,56.86
2023-05-12T08:59:28.037Z,58.97
2023-05-12T09:01:56.533Z,58.45
2023-05-12T09:04:24.609Z,57.91
2023-05-12T09:06:54.990Z,57.67
2023-05-12T09:09:25.921Z,56.91
2023-05-12T09:11:57.683Z,57.22
2023-05-12T09:14:26.826Z,57.41
2023-05-12T09:16:57.384Z,56.40
2023-05-12T09:19:25.289Z,56.24
2023-05-12T09:21:53.395Z,56.21
2023-05-12T09:24:22.400Z,55.87
2023-05-12T09:26:54.461Z,56.42
2023-05-12T09:29:31.221Z,55.94
2023-05-12T09:32:02.602Z,55.39
2023-05-12T09:34:32.166Z,55.42
2023-05-12T09:37:01.353Z,54.59
2023-05-12T09:39:29.632Z,53.79
2023-05-12T09:41:58.955Z,53.68
2023-05-12T09:44:29.022Z,53.57
2023-05-12T09:46:56.963Z,53.65
2023-05-12T09:49:27.120Z,51.54
2023-05-12T09:51:56.771Z,50.94
2023-05-12T09:54:28.384Z,49.12
2023-05-12T09:57:00.719Z,50.20
2023-05-12T09:59:32.756Z,47.33
2023-05-12T10:02:01.763Z,45.76
2023-05-12T10:04:33.126Z,49.38
2023-05-12T10:07:01.195Z,46.93
2023-05-12T10:09:34.076Z,47.51
2023-05-12T10:12:04.695Z,47.89
2023-05-12T10:14:32.930Z,47.18
2023-05-12T10:17:01.593Z,46.39
2023-05-12T10:19:30.179Z,45.52
2023-05-12T10:21:58.726Z,44.88
2023-05-12T10:24:28.031Z,45.93
2023-05-12T10:26:56.771Z,45.75
2023-05-12T10:29:30.152Z,45.94
2023-05-12T10:31:58.576Z,42.07
2023-05-12T10:34:31.635Z,42.90
2023-05-12T10:36:59.679Z,42.87
2023-05-12T10:39:29.760Z,40.64
2023-05-12T10:42:02.819Z,44.94
2023-05-12T10:44:32.185Z,44.59
2023-05-12T10:47:00.352Z,44.99
2023-05-12T10:49:35.140Z,41.92
2023-05-12T10:52:03.076Z,44.58
2023-05-12T10:54:30.977Z,44.33
2023-05-12T10:57:02.246Z,43.55
2023-05-12T10:59:32.187Z,42.07
2023-05-12T11:02:03.583Z,40.12
2023-05-12T11:04:42.253Z,45.63
2023-05-12T11:07:12.190Z,45.84
2023-05-12T11:09:50.586Z,47.46
2023-05-12T11:12:21.780Z,48.04
2023-05-12T11:14:51.167Z,43.71
2023-05-12T11:17:19.051Z,43.93
2023-05-12T11:19:49.592Z,45.13
2023-05-12T11:22:19.260Z,44.17
2023-05-12T11:24:47.918Z,44.31
2023-05-12T11:27:17.091Z,40.75
2023-05-12T11:29:47.100Z,41.82
2023-05-12T11:32:17.289Z,41.63
2023-05-12T11:34:45.483Z,42.38
2023-05-12T11:37:13.371Z,43.26
2023-05-12T11:39:42.679Z,39.33
2023-05-12T11:42:13.587Z,40.05
2023-05-12T11:44:48.445Z,39.00
2023-05-12T11:47:18.532Z,43.31
2023-05-12T11:49:48.454Z,43.02
2023-05-12T11:52:17.256Z,43.48
2023-05-12T11:54:50.188Z,44.41
2023-05-12T11:57:26.779Z,43.43
2023-05-12T11:59:58.952Z,43.80
2023-05-12T12:02:28.600Z,44.33
2023-05-12T12:04:56.607Z,44.59
2023-05-12T12:07:31.898Z,43.27
2023-05-12T12:10:00.366Z,40.58
2023-05-12T12:12:28.312Z,42.18
2023-05-12T12:15:00.048Z,42.55
2023-05-12T12:17:31.337Z,41.94
2023-05-12T12:19:59.477Z,39.74
2023-05-12T12:22:27.463Z,40.63
2023-05-12T12:24:55.379Z,41.16
2023-05-12T12:27:23.276Z,40.51
2023-05-12T12:29:51.404Z,38.60
2023-05-12T12:32:19.676Z,36.33
2023-05-12T12:34:49.319Z,35.23
2023-05-12T12:37:17.729Z,35.13
2023-05-12T12:39:47.672Z,39.07
2023-05-12T12:42:16.019Z,34.97
2023-05-12T12:44:46.026Z,39.12
2023-05-12T12:47:13.996Z,39.60
2023-05-12T12:49:41.990Z,35.21
2023-05-12T12:52:11.432Z,33.93
2023-05-12T12:54:39.316Z,37.92
2023-05-12T12:57:07.266Z,35.05
2023-05-12T12:59:35.176Z,32.50
2023-05-12T13:02:03.256Z,37.84
2023-05-12T13:04:31.385Z,36.96
2023-05-12T13:06:59.316Z,33.91
2023-05-12T13:09:28.656Z,38.24
2023-05-12T13:11:56.617Z,37.04
2023-05-12T13:14:24.931Z,38.90
2023-05-12T13:16:53.001Z,36.95
2023-05-12T13:19:21.721Z,33.88
2023-05-12T13:21:49.662Z,36.69
2023-05-12T13:24:17.628Z,29.43
2023-05-12T13:26:46.924Z,36.34
2023-05-12T13:29:14.808Z,36.02
2023-05-12T13:31:43.121Z,36.99
2023-05-12T13:34:11.098Z,35.95
2023-05-12T13:36:39.014Z,36.66
2023-05-12T13:39:07.115Z,36.24
2023-05-12T13:41:35.033Z,36.09
2023-05-12T13:44:04.563Z,29.51
2023-05-12T13:46:32.547Z,31.65
2023-05-12T13:49:00.786Z,33.38
2023-05-12T13:51:28.735Z,29.34
2023-05-12T13:53:57.001Z,34.44
2023-05-12T13:56:25.718Z,34.46
2023-05-12T13:58:53.638Z,35.82
2023-05-12T14:01:22.946Z,34.19
2023-05-12T14:03:51.096Z,29.67
2023-05-12T14:06:18.979Z,29.42
2023-05-12T14:08:46.892Z,32.88
2023-05-12T14:11:14.911Z,33.57
2023-05-12T14:13:42.821Z,34.37
2023-05-12T14:16:12.834Z,32.83
2023-05-12T14:18:43.527Z,33.81
2023-05-12T14:21:11.903Z,32.41
2023-05-12T14:23:40.085Z,33.26
2023-05-12T14:26:07.984Z,29.54
2023-05-12T14:28:37.116Z,27.01
2023-05-12T14:31:05.210Z,30.39
2023-05-12T14:33:33.243Z,27.12
2023-05-12T14:36:07.495Z,27.68
2023-05-12T14:38:36.873Z,26.92
2023-05-12T14:41:07.104Z,31.66
2023-05-12T14:43:35.088Z,32.08
2023-05-12T14:46:03.057Z,32.11
2023-05-12T14:48:31.806Z,31.73
2023-05-12T14:51:00.333Z,30.09
2023-05-12T14:53:29.657Z,28.64
2023-05-12T14:55:57.575Z,31.35
2023-05-12T14:58:25.513Z,26.87
2023-05-12T15:00:53.622Z,31.82
2023-05-12T15:03:21.810Z,32.01
2023-05-12T15:08:22.820Z,25.14
2023-05-12T15:10:52.336Z,26.36
2023-05-12T15:13:23.028Z,26.24
2023-05-12T15:15:51.896Z,31.72
2023-05-12T15:18:22.140Z,29.73
2023-05-12T15:20:50.100Z,29.95
2023-05-12T15:23:18.079Z,25.63
2023-05-12T15:25:46.073Z,28.69
2023-05-12T15:28:15.553Z,27.91
2023-05-12T15:30:43.461Z,27.22
2023-05-12T15:33:11.419Z,24.38
2023-05-12T15:35:40.757Z,27.26
2023-05-12T15:38:08.726Z,27.63
2023-05-12T15:40:36.621Z,27.97
2023-05-12T15:43:05.015Z,26.80
2023-05-12T15:45:37.291Z,25.21
2023-05-12T15:48:08.715Z,25.15
2023-05-12T15:50:38.081Z,26.53
2023-05-12T15:53:06.938Z,27.45
2023-05-12T15:55:34.860Z,27.02
2023-05-12T15:58:03.613Z,27.19
2023-05-12T16:00:31.589Z,29.43
2023-05-12T16:03:01.843Z,27.82
2023-05-12T16:05:29.979Z,27.73
2023-05-12T16:07:57.873Z,28.19
2023-05-12T16:10:25.779Z,28.59
2023-05-12T16:12:53.692Z,26.90
2023-05-12T16:15:21.913Z,28.12
2023-05-12T16:17:50.079Z,28.69
2023-05-12T16:20:19.571Z,29.81
2023-05-12T16:22:48.293Z,28.81
2023-05-12T16:25:16.317Z,29.77
2023-05-12T16:27:44.212Z,29.27
2023-05-12T16:30:13.344Z,30.75
2023-05-12T16:32:41.766Z,30.50
2023-05-12T16:35:10.972Z,31.11
2023-05-12T16:37:40.296Z,27.98
2023-05-12T16:40:09.742Z,29.73
2023-05-12T16:42:37.706Z,28.70
2023-05-12T16:45:06.449Z,28.11
2023-05-12T16:47:34.404Z,29.47
2023-05-12T16:50:02.524Z,31.44
2023-05-12T16:52:30.661Z,31.80
2023-05-12T16:55:00.208Z,30.88
2023-05-12T16:57:28.191Z,28.70
2023-05-12T16:59:56.135Z,31.14
2023-05-12T17:02:24.112Z,29.52
2023-05-12T17:04:52.059Z,31.67
2023-05-12T17:07:19.987Z,32.76
2023-05-12T17:09:47.889Z,31.80
2023-05-12T17:12:17.216Z,34.48
2023-05-12T17:14:50.124Z,31.05
2023-05-12T17:17:18.148Z,34.05
2023-05-12T17:19:46.156Z,34.04
2023-05-12T17:22:14.402Z,33.37
2023-05-12T17:24:42.304Z,31.73
2023-05-12T17:27:10.180Z,32.64
2023-05-12T17:29:39.464Z,35.33
2023-05-12T17:32:08.079Z,35.71
2023-05-12T17:34:36.008Z,35.55
2023-05-12T17:37:06.058Z,36.41
2023-05-12T17:39:34.487Z,31.17
2023-05-12T17:42:03.282Z,37.20
2023-05-12T17:44:31.681Z,38.36
2023-05-12T17:47:01.292Z,35.45
2023-05-12T17:49:29.325Z,39.68
2023-05-12T17:51:57.253Z,37.78
2023-05-12T17:54:25.174Z,39.90
2023-05-12T17:56:53.096Z,39.60
2023-05-12T17:59:21.026Z,35.99
2023-05-12T18:01:49.158Z,39.29
2023-05-12T18:04:19.371Z,40.86
2023-05-12T18:06:50.099Z,41.11
2023-05-12T18:09:19.860Z,42.07
2023-05-12T18:11:48.041Z,40.03
2023-05-12T18:14:16.007Z,40.70
2023-05-12T18:16:43.961Z,41.39
2023-05-12T18:19:11.945Z,41.40
2023-05-12T18:21:41.264Z,38.67
2023-05-12T18:24:09.465Z,38.85
2023-05-12T18:26:37.569Z,43.48
2023-05-12T18:29:05.554Z,43.64
2023-05-12T18:31:34.358Z,41.14
2023-05-12T18:34:02.324Z,43.80
2023-05-12T18:36:30.230Z,40.21
2023-05-12T18:38:59.488Z,42.63
2023-05-12T18:41:27.784Z,37.70
2023-05-12T18:43:55.714Z,40.12
2023-05-12T18:46:23.707Z,43.01
2023-05-12T18:48:51.621Z,39.33
2023-05-12T18:51:19.552Z,41.27
2023-05-12T18:53:47.940Z,42.01
2023-05-12T18:56:17.212Z,39.86
2023-05-12T18:58:45.130Z,41.99
2023-05-12T19:01:13.035Z,42.83
2023-05-12T19:03:41.423Z,42.25
2023-05-12T19:06:09.361Z,41.33
2023-05-12T19:08:37.260Z,42.82
2023-05-12T19:11:05.178Z,43.96
2023-05-12T19:13:34.507Z,40.58
2023-05-12T19:16:02.468Z,42.72
2023-05-12T19:18:30.708Z,41.91
2023-05-12T19:20:58.601Z,39.06
2023-05-12T19:23:26.772Z,42.40
2023-05-12T19:25:54.764Z,42.25
2023-05-12T19:28:22.670Z,41.88
2023-05-12T19:30:51.983Z,41.72
2023-05-12T19:33:19.883Z,42.10
2023-05-12T19:35:47.843Z,42.66
2023-05-12T19:38:15.846Z,43.22
2023-05-12T19:40:46.573Z,43.31
2023-05-12T19:43:14.480Z,42.81
2023-05-12T19:45:42.527Z,43.40
2023-05-12T19:48:11.969Z,43.21
2023-05-12T19:50:39.908Z,43.39
2023-05-12T19:53:08.000Z,43.76
2023-05-12T19:55:36.197Z,44.04
2023-05-12T19:58:04.107Z,44.50
2023-05-12T20:00:32.012Z,44.29
2023-05-12T20:03:00.089Z,45.07
2023-05-12T20:05:29.551Z,45.18
2023-05-12T20:07:57.820Z,45.43
2023-05-12T20:10:25.897Z,46.23
2023-05-12T20:12:54.889Z,46.38
2023-05-12T20:15:22.970Z,47.32
2023-05-12T20:17:51.218Z,46.05
2023-05-12T20:20:19.106Z,47.91
2023-05-12T20:22:48.516Z,48.10
2023-05-12T20:25:17.765Z,47.67
2023-05-12T20:27:45.826Z,47.73
2023-05-12T20:30:14.267Z,47.98
2023-05-12T20:32:43.604Z,48.23
2023-05-12T20:35:11.547Z,48.90
2023-05-12T20:37:40.566Z,48.91
2023-05-12T20:40:11.082Z,49.31
2023-05-12T20:42:38.966Z,49.68
2023-05-12T20:45:08.078Z,49.88
2023-05-12T20:47:36.758Z,49.81
2023-05-12T20:50:05.651Z,49.91
2023-05-12T20:52:33.779Z,50.34
2023-05-12T20:55:01.753Z,50.19
2023-05-12T20:57:31.080Z,50.15
2023-05-12T20:59:58.990Z,50.01
2023-05-12T21:02:28.232Z,50.05
2023-05-12T21:04:56.958Z,50.49
2023-05-12T21:07:24.934Z,50.57
2023-05-12T21:09:52.889Z,50.81
2023-05-12T21:12:20.808Z,51.18
2023-05-12T21:14:50.119Z,51.40
2023-05-12T21:17:18.078Z,52.15
2023-05-12T21:19:46.257Z,51.93
2023-05-12T21:22:14.267Z,52.65
2023-05-12T21:24:43.057Z,52.31
2023-05-12T21:27:11.585Z,53.36
2023-05-12T21:29:39.598Z,52.89
2023-05-12T21:32:09.281Z,53.27
2023-05-12T21:34:37.249Z,53.37
2023-05-12T21:37:05.336Z,52.98
2023-05-12T21:39:33.255Z,52.91
2023-05-12T21:42:01.175Z,53.67
2023-05-12T21:44:29.092Z,53.61
2023-05-12T21:46:58.718Z,53.83
2023-05-12T21:49:28.102Z,52.78
2023-05-12T21:51:56.329Z,53.11
2023-05-12T21:54:24.242Z,53.18
2023-05-12T21:56:52.562Z,54.32
2023-05-12T21:59:20.712Z,53.76
2023-05-12T22:01:48.764Z,54.94
2023-05-12T22:04:16.703Z,53.87
2023-05-12T22:06:45.993Z,53.82
2023-05-12T22:09:14.389Z,54.94
2023-05-12T22:11:42.336Z,54.42
2023-05-12T22:14:10.252Z,55.45
2023-05-12T22:16:41.708Z,54.50
2023-05-12T22:19:10.521Z,54.02
2023-05-12T22:21:38.608Z,54.95
2023-05-12T22:24:08.732Z,54.99
2023-05-12T22:26:36.634Z,54.75
2023-05-12T22:29:04.559Z,54.99
2023-05-12T22:31:32.521Z,54.58
2023-05-12T22:34:00.441Z,54.46
2023-05-12T22:36:28.369Z,54.19
2023-05-12T22:38:56.363Z,54.34
2023-05-12T22:41:25.808Z,54.24
2023-05-12T22:43:53.704Z,54.34
2023-05-12T22:46:21.716Z,54.15
2023-05-12T22:48:50.859Z,54.29
2023-05-12T22:51:18.727Z,54.46
2023-05-12T22:53:46.710Z,54.22
2023-05-12T22:56:14.610Z,54.47
2023-05-12T22:58:43.899Z,54.60
2023-05-12T23:01:11.928Z,54.89
2023-05-12T23:03:39.891Z,55.16
2023-05-12T23:06:08.091Z,56.01
2023-05-12T23:08:36.086Z,55.30
2023-05-12T23:11:03.996Z,55.15
2023-05-12T23:13:31.892Z,55.15
2023-05-12T23:16:01.246Z,55.77
2023-05-12T23:18:29.204Z,55.55
2023-05-12T23:20:57.133Z,56.02
2023-05-12T23:23:25.145Z,56.11
2023-05-12T23:25:53.059Z,55.57
2023-05-12T23:28:21.201Z,56.02
2023-05-12T23:30:49.131Z,56.24
2023-05-12T23:33:18.506Z,56.10
2023-05-12T23:35:46.441Z,56.10
2023-05-12T23:38:14.350Z,55.94
2023-05-12T23:40:42.280Z,56.32
2023-05-12T23:43:10.181Z,56.19
2023-05-12T23:45:38.175Z,56.18
2023-05-12T23:48:06.779Z,56.41
2023-05-12T23:50:36.125Z,56.29
2023-05-12T23:53:04.047Z,56.38
2023-05-12T23:55:31.975Z,56.46
2023-05-12T23:58:00.111Z,56.54
